Time;durP1;ratioP1;P1;durP2;ratioP2;P2;SDS_P1;SDS_P2;PMS_P1;PMS_P2;Temp;Humidity;BMP_temperature;BMP_pressure;BME280_temperature;BME280_humidity;BME280_pressure;Samples;Min_cycle;Max_cycle;Signal;HPM_P1;HPM_P2
2021/06/30 00:00:17;;;;;;;5.53;5.00;;;;;;;14.01;100.00;95549.03;1015227;29;20430;-67
2021/06/30 00:00:48;;;;;;;7.70;5.53;;;;;;;13.98;100.00;95544.31;1018523;29;20453;-67
2021/06/30 00:01:18;;;;;;;5.30;4.28;;;;;;;13.98;100.00;95539.03;1019595;29;20076;-67
2021/06/30 00:01:49;;;;;;;8.40;4.95;;;;;;;13.96;100.00;95541.22;1014876;29;20418;-67
2021/06/30 00:02:19;;;;;;;6.63;4.45;;;;;;;13.94;100.00;95541.47;1014602;29;20054;-67
2021/06/30 00:02:50;;;;;;;5.65;4.10;;;;;;;13.95;100.00;95534.34;1014830;29;20042;-65
2021/06/30 00:03:20;;;;;;;5.70;3.88;;;;;;;13.91;100.00;95527.00;1014916;29;20032;-66
2021/06/30 00:03:51;;;;;;;8.32;4.93;;;;;;;13.97;100.00;95534.84;1012979;29;20060;-68
2021/06/30 00:04:21;;;;;;;10.52;4.53;;;;;;;13.94;100.00;95527.50;1014030;29;20028;-67
2021/06/30 00:04:52;;;;;;;8.63;4.60;;;;;;;13.96;100.00;95533.28;1014816;29;20125;-67
2021/06/30 00:05:22;;;;;;;6.32;5.72;;;;;;;13.97;100.00;95521.66;1018815;29;20032;-67
2021/06/30 00:05:53;;;;;;;7.72;5.85;;;;;;;13.96;100.00;95525.38;1022622;29;20462;-68
2021/06/30 00:06:23;;;;;;;4.90;4.05;;;;;;;13.89;100.00;95515.97;1014921;29;20040;-67
2021/06/30 00:06:53;;;;;;;7.03;4.80;;;;;;;13.95;100.00;95523.78;1014904;29;20051;-67
2021/06/30 00:07:24;;;;;;;6.20;4.85;;;;;;;13.98;100.00;95521.34;1013358;29;20129;-67
2021/06/30 00:07:54;;;;;;;5.88;5.20;;;;;;;13.97;100.00;95522.44;1014955;29;20486;-66
2021/06/30 00:08:25;;;;;;;8.85;5.63;;;;;;;13.97;100.00;95508.47;1017316;29;20482;-67
2021/06/30 00:08:55;;;;;;;5.18;4.45;;;;;;;13.98;100.00;95515.31;1016989;29;20024;-67
2021/06/30 00:09:26;;;;;;;5.93;4.20;;;;;;;13.95;100.00;95510.59;1017816;29;20028;-67
2021/06/30 00:09:56;;;;;;;4.88;4.30;;;;;;;13.96;100.00;95512.19;1014948;29;20043;-67
2021/06/30 00:10:27;;;;;;;5.75;4.65;;;;;;;13.98;100.00;95521.34;1010842;29;20402;-66
2021/06/30 00:10:58;;;;;;;6.68;5.97;;;;;;;13.98;100.00;95515.31;1006761;29;20036;-67
2021/06/30 00:11:28;;;;;;;12.40;6.18;;;;;;;13.91;100.00;95511.19;1010896;29;20028;-67
2021/06/30 00:11:58;;;;;;;5.45;4.50;;;;;;;13.97;100.00;95519.81;1007177;29;20227;-67
2021/06/30 00:12:29;;;;;;;4.90;4.00;;;;;;;13.97;100.00;95526.94;1006811;29;20037;-67
2021/06/30 00:13:03;;;;;;;6.28;4.55;;;;;;;13.96;100.00;95522.75;1010945;29;20048;-64
2021/06/30 00:13:33;;;;;;;5.63;5.13;;;;;;;13.97;100.00;95524.31;1015730;29;20031;-68
2021/06/30 00:14:04;;;;;;;4.50;4.10;;;;;;;13.99;100.00;95519.53;1020751;29;20038;-66
2021/06/30 00:14:34;;;;;;;6.85;4.45;;;;;;;13.97;100.00;95526.94;1018993;29;20055;-68
2021/06/30 00:15:07;;;;;;;4.75;4.30;;;;;;;13.94;100.00;95517.75;1015013;29;20032;-67
2021/06/30 00:15:38;;;;;;;5.85;5.05;;;;;;;13.94;100.00;95524.88;1006887;29;20436;-67
2021/06/30 00:16:08;;;;;;;5.30;4.80;;;;;;;13.90;100.00;95519.41;1013282;29;20389;-67
2021/06/30 00:16:39;;;;;;;7.55;5.18;;;;;;;13.87;100.00;95518.09;1014696;29;20027;-67
2021/06/30 00:17:10;;;;;;;5.15;4.63;;;;;;;13.93;100.00;95528.59;1022428;29;20058;-65
2021/06/30 00:17:40;;;;;;;5.95;5.30;;;;;;;13.91;100.00;95529.63;1014144;29;20320;-68
2021/06/30 00:18:11;;;;;;;7.00;5.18;;;;;;;13.86;100.00;95515.78;1018614;29;20490;-68
2021/06/30 00:18:41;;;;;;;5.45;4.88;;;;;;;13.91;100.00;95527.00;1011036;29;20037;-68
2021/06/30 00:19:12;;;;;;;7.10;4.75;;;;;;;13.93;100.00;95523.31;1014760;29;20646;-67
2021/06/30 00:19:42;;;;;;;6.97;5.45;;;;;;;13.91;100.00;95519.09;1018092;29;20068;-67
2021/06/30 00:20:13;;;;;;;6.85;5.57;;;;;;;13.86;100.00;95519.19;1026513;28;20027;-67
2021/06/30 00:20:44;;;;;;;9.55;6.30;;;;;;;13.89;100.00;95510.69;1021948;29;20023;-67
2021/06/30 00:21:14;;;;;;;5.50;4.68;;;;;;;13.85;100.00;95512.34;1010632;29;20033;-67
2021/06/30 00:21:45;;;;;;;7.45;5.43;;;;;;;13.91;100.00;95516.44;1014886;29;20568;-67
2021/06/30 00:22:15;;;;;;;6.35;5.30;;;;;;;13.91;100.00;95516.44;1014896;29;20134;-67
2021/06/30 00:22:48;;;;;;;6.75;5.25;;;;;;;13.86;100.00;95503.38;1018489;29;20020;-66
2021/06/30 00:23:19;;;;;;;5.40;4.78;;;;;;;13.87;100.00;95514.69;1022444;29;20091;-67
2021/06/30 00:23:49;;;;;;;5.20;4.60;;;;;;;13.89;100.00;95517.84;1023241;28;20851;-66
2021/06/30 00:24:20;;;;;;;7.63;5.25;;;;;;;13.86;100.00;95519.19;1026155;28;20759;-65
2021/06/30 00:24:53;;;;;;;6.03;5.05;;;;;;;13.87;100.00;95510.19;1022875;29;20028;-67
2021/06/30 00:25:24;;;;;;;6.07;5.47;;;;;;;13.88;100.00;95517.06;1022426;29;20537;-66
2021/06/30 00:25:54;;;;;;;7.07;5.05;;;;;;;13.90;100.00;95517.53;1018829;29;20038;-66
2021/06/30 00:26:25;;;;;;;5.68;4.70;;;;;;;13.89;100.00;95508.06;1018929;29;20641;-67
2021/06/30 00:26:55;;;;;;;6.80;6.10;;;;;;;13.90;100.00;95506.97;1022933;29;20027;-66
2021/06/30 00:27:26;;;;;;;6.25;5.35;;;;;;;13.88;100.00;95517.06;1018194;29;20509;-66
2021/06/30 00:27:56;;;;;;;5.22;4.72;;;;;;;13.86;100.00;95513.91;1018487;29;20027;-65
2021/06/30 00:28:27;;;;;;;8.30;5.38;;;;;;;13.87;100.00;95507.56;1014783;29;20059;-67
2021/06/30 00:28:57;;;;;;;6.80;6.10;;;;;;;13.88;100.00;95516.25;1015832;29;20085;-67
2021/06/30 00:29:27;;;;;;;6.97;6.25;;;;;;;13.82;100.00;95506.88;1019169;29;20031;-65
2021/06/30 00:29:58;;;;;;;10.73;5.78;;;;;;;13.85;100.00;95517.63;1015140;29;20051;-66
2021/06/30 00:30:31;;;;;;;7.63;5.68;;;;;;;13.85;100.00;95522.13;1018867;29;20454;-67
2021/06/30 00:31:01;;;;;;;8.32;5.32;;;;;;;13.84;100.00;95521.31;1017194;29;20023;-66
2021/06/30 00:31:32;;;;;;;5.45;4.55;;;;;;;13.78;100.00;95511.94;1014653;29;20028;-64
2021/06/30 00:32:03;;;;;;;5.82;5.05;;;;;;;13.77;100.00;95509.56;1014760;29;20664;-67
2021/06/30 00:32:33;;;;;;;7.82;5.03;;;;;;;13.83;100.00;95513.72;1006999;29;20037;-66
2021/06/30 00:33:04;;;;;;;6.75;6.10;;;;;;;13.80;100.00;95512.41;1007563;29;20028;-64
2021/06/30 00:33:34;;;;;;;6.85;6.15;;;;;;;13.82;100.00;95518.19;1010503;29;20036;-67
2021/06/30 00:34:05;;;;;;;8.27;5.78;;;;;;;13.82;100.00;95520.84;1011047;29;20095;-66
2021/06/30 00:34:35;;;;;;;6.93;5.72;;;;;;;13.85;100.00;95520.28;1014899;29;20052;-67
2021/06/30 00:35:06;;;;;;;9.32;6.07;;;;;;;13.83;100.00;95519.75;1016452;29;20403;-66
2021/06/30 00:35:36;;;;;;;6.78;6.07;;;;;;;13.83;100.00;95522.41;1011385;29;20053;-66
2021/06/30 00:36:09;;;;;;;7.63;5.82;;;;;;;13.81;100.00;95521.91;1010692;29;20405;-67
2021/06/30 00:36:47;;;;;;;5.85;5.30;;;;;;;13.80;100.00;95514.28;1015785;29;20834;-67
2021/06/30 00:37:19;;;;;;;7.70;5.78;;;;;;;13.76;100.00;95506.16;1022122;29;20103;-64
2021/06/30 00:37:49;;;;;;;7.70;5.40;;;;;;;13.62;100.00;95492.94;1022680;29;20379;-67
2021/06/30 00:38:19;;;;;;;7.18;5.20;;;;;;;13.79;100.00;95518.78;1022722;29;20118;-67
2021/06/30 00:38:50;;;;;;;8.38;6.53;;;;;;;13.83;100.00;95519.75;1014759;29;20035;-67
2021/06/30 00:39:22;;;;;;;7.13;6.43;;;;;;;13.78;100.00;95508.50;1014400;29;20076;-67
2021/06/30 00:39:52;;;;;;;8.32;6.30;;;;;;;13.81;100.00;95505.28;1011072;29;20024;-67
2021/06/30 00:40:23;;;;;;;6.55;5.95;;;;;;;13.82;100.00;95510.28;1011047;29;20272;-67
2021/06/30 00:40:53;;;;;;;6.75;5.65;;;;;;;13.83;100.00;95516.34;1010964;29;20036;-64
2021/06/30 00:41:24;;;;;;;6.30;5.00;;;;;;;13.82;100.00;95512.94;1014182;29;20040;-67
2021/06/30 00:41:57;;;;;;;7.00;6.20;;;;;;;13.83;100.00;95514.50;1017958;29;20061;-67
2021/06/30 00:42:29;;;;;;;9.52;5.80;;;;;;;13.81;100.00;95516.63;1015677;29;20024;-67
2021/06/30 00:42:59;;;;;;;7.18;5.45;;;;;;;13.83;100.00;95513.72;1018617;29;20909;-67
2021/06/30 00:43:30;;;;;;;6.10;5.07;;;;;;;13.78;100.00;95506.66;1018519;29;20296;-67
2021/06/30 00:44:00;;;;;;;6.25;5.40;;;;;;;13.80;100.00;95515.06;1011435;29;20158;-66
2021/06/30 00:44:34;;;;;;;5.07;4.57;;;;;;;13.81;100.00;95513.97;1014149;29;20080;-67
2021/06/30 00:45:05;;;;;;;5.68;4.65;;;;;;;13.81;100.00;95506.06;1015001;29;20114;-66
2021/06/30 00:45:35;;;;;;;5.22;4.72;;;;;;;13.82;100.00;95518.19;1015676;29;20914;-67
2021/06/30 00:46:06;;;;;;;7.78;5.18;;;;;;;13.82;100.00;95502.38;1020484;29;20271;-66
2021/06/30 00:46:36;;;;;;;7.60;5.43;;;;;;;13.81;100.00;95505.28;1019559;29;20461;-66
2021/06/30 00:47:07;;;;;;;6.93;5.05;;;;;;;13.83;100.00;95503.94;1021961;28;20364;-65
2021/06/30 00:47:37;;;;;;;6.32;5.70;;;;;;;13.78;100.00;95498.75;1015045;29;20040;-66
2021/06/30 00:48:09;;;;;;;10.05;6.10;;;;;;;13.87;100.00;95509.41;1016448;29;20042;-66
2021/06/30 00:48:40;;;;;;;7.93;5.13;;;;;;;13.84;100.00;95515.25;1019878;29;20513;-67
2021/06/30 00:49:10;;;;;;;10.55;5.90;;;;;;;13.84;100.00;95510.00;1023194;28;20031;-66
2021/06/30 00:49:41;;;;;;;6.97;4.75;;;;;;;13.82;100.00;95514.78;1026554;28;20035;-66
2021/06/30 00:50:15;;;;;;;6.75;4.75;;;;;;;13.77;100.00;95505.09;1024286;28;20070;-67
2021/06/30 00:50:45;;;;;;;6.97;5.68;;;;;;;13.81;100.00;95516.63;1022477;29;20121;-66
2021/06/30 00:51:16;;;;;;;5.55;4.80;;;;;;;13.80;100.00;95515.06;1018971;29;20058;-67
2021/06/30 00:51:49;;;;;;;9.63;6.43;;;;;;;13.81;100.00;95510.56;1018345;29;20038;-67
2021/06/30 00:52:19;;;;;;;6.47;5.88;;;;;;;13.81;100.00;95511.34;1012026;29;20087;-67
2021/06/30 00:52:50;;;;;;;7.07;5.68;;;;;;;13.80;100.00;95515.06;1010987;29;20770;-66
2021/06/30 00:53:20;;;;;;;7.28;5.10;;;;;;;13.77;100.00;95509.56;1011576;29;20039;-67
2021/06/30 00:53:51;;;;;;;6.20;5.60;;;;;;;13.73;100.00;95503.31;1014892;29;20406;-67
2021/06/30 00:54:21;;;;;;;9.95;6.50;;;;;;;13.73;100.00;95496.19;1015343;29;20028;-67
2021/06/30 00:54:52;;;;;;;7.55;5.90;;;;;;;13.77;100.00;95509.56;1015234;29;20036;-67
2021/06/30 00:55:23;;;;;;;6.88;6.18;;;;;;;13.77;100.00;95512.22;1014742;29;20036;-67
2021/06/30 00:55:53;;;;;;;8.13;6.90;;;;;;;13.71;100.00;95495.69;1012038;29;20517;-67
2021/06/30 00:56:25;;;;;;;7.65;6.07;;;;;;;13.77;100.00;95509.56;1015694;29;20260;-67
2021/06/30 00:56:56;;;;;;;7.65;5.55;;;;;;;13.74;100.00;95512.78;1017661;29;20032;-65
2021/06/30 00:57:27;;;;;;;9.05;6.38;;;;;;;13.70;100.00;95507.31;1018750;29;20275;-66
2021/06/30 00:57:58;;;;;;;5.63;5.03;;;;;;;13.73;100.00;95506.75;1019357;29;20078;-66
2021/06/30 00:58:28;;;;;;;6.15;5.63;;;;;;;13.71;100.00;95503.59;1023062;29;20321;-67
2021/06/30 00:59:00;;;;;;;6.20;5.18;;;;;;;13.75;100.00;95515.16;1015825;29;20845;-64
2021/06/30 00:59:30;;;;;;;8.10;6.57;;;;;;;13.70;100.00;95499.41;1011097;29;20044;-66
2021/06/30 01:00:00;;;;;;;6.65;4.97;;;;;;;13.73;100.00;95506.75;1015295;29;20496;-67
2021/06/30 01:00:31;;;;;;;6.43;5.72;;;;;;;13.75;100.00;95512.53;1012441;29;20024;-67
2021/06/30 01:01:01;;;;;;;9.40;5.57;;;;;;;13.75;100.00;95511.72;1015463;29;20115;-67
2021/06/30 01:01:32;;;;;;;7.53;6.13;;;;;;;13.76;100.00;95514.06;1014772;29;20067;-67
2021/06/30 01:02:03;;;;;;;7.40;6.00;;;;;;;13.75;100.00;95511.72;1013487;29;20036;-64
2021/06/30 01:02:33;;;;;;;7.90;6.80;;;;;;;13.75;100.00;95509.06;1011114;29;20088;-67
2021/06/30 01:03:04;;;;;;;7.68;6.60;;;;;;;13.76;100.00;95510.66;1014000;29;20103;-67
2021/06/30 01:03:34;;;;;;;7.25;6.57;;;;;;;13.77;100.00;95510.34;1018774;29;20077;-67
2021/06/30 01:04:05;;;;;;;7.95;6.13;;;;;;;13.74;100.00;95500.38;1015465;29;20086;-67
2021/06/30 01:04:35;;;;;;;6.70;6.10;;;;;;;13.71;100.00;95498.31;1011207;29;20469;-67
2021/06/30 01:05:06;;;;;;;8.48;6.38;;;;;;;13.74;100.00;95503.03;1021828;29;20094;-67
2021/06/30 01:05:37;;;;;;;7.00;5.10;;;;;;;13.64;100.00;95490.00;1019878;29;20530;-66
2021/06/30 01:06:07;;;;;;;5.88;4.95;;;;;;;13.73;100.00;95498.06;1013940;29;20100;-67
2021/06/30 01:06:38;;;;;;;7.47;6.75;;;;;;;13.67;100.00;95486.78;1007239;29;20128;-66
2021/06/30 01:07:08;;;;;;;9.32;5.90;;;;;;;13.72;100.00;95502.53;1006201;29;20110;-66
2021/06/30 01:07:40;;;;;;;7.55;6.20;;;;;;;13.72;100.00;95497.28;1006622;29;20036;-67
2021/06/30 01:08:10;;;;;;;6.60;5.93;;;;;;;13.74;100.00;95505.66;1019339;29;20505;-67
2021/06/30 01:08:41;;;;;;;8.55;6.22;;;;;;;13.68;100.00;95490.97;1022814;29;20271;-67
2021/06/30 01:09:11;;;;;;;8.30;6.78;;;;;;;13.76;100.00;95508.03;1014673;29;20632;-66
2021/06/30 01:09:42;;;;;;;6.63;5.72;;;;;;;13.76;100.00;95508.81;1011213;29;20028;-65
2021/06/30 01:10:12;;;;;;;6.57;5.60;;;;;;;13.77;100.00;95510.34;1011158;29;20502;-66
2021/06/30 01:10:43;;;;;;;5.97;5.38;;;;;;;13.75;100.00;95516.97;1010917;29;20035;-67
2021/06/30 01:11:14;;;;;;;7.03;6.32;;;;;;;13.77;100.00;95514.84;1010960;29;20024;-66
2021/06/30 01:11:44;;;;;;;8.98;6.65;;;;;;;13.75;100.00;95512.53;1010971;29;20072;-67
2021/06/30 01:12:15;;;;;;;7.88;5.88;;;;;;;13.74;100.00;95510.94;1012143;29;20028;-67
2021/06/30 01:12:45;;;;;;;7.50;6.60;;;;;;;13.75;100.00;95515.16;1009672;29;20033;-66
2021/06/30 01:13:15;;;;;;;7.30;6.47;;;;;;;13.75;100.00;95517.78;1011360;29;20037;-66
2021/06/30 01:13:47;;;;;;;6.82;6.13;;;;;;;13.76;100.00;95519.34;1014945;29;20051;-67
2021/06/30 01:14:25;;;;;;;10.27;6.70;;;;;;;13.75;100.00;95509.88;1015598;29;20074;-66
2021/06/30 01:14:55;;;;;;;9.38;6.47;;;;;;;13.73;100.00;95516.50;1007226;29;20550;-67
2021/06/30 01:15:26;;;;;;;7.32;5.93;;;;;;;13.71;100.00;95516.00;1003513;29;20033;-67
2021/06/30 01:15:57;;;;;;;7.88;6.45;;;;;;;13.55;100.00;95500.44;1006359;29;20021;-66
2021/06/30 01:16:27;;;;;;;7.13;6.05;;;;;;;13.71;100.00;95522.06;1011125;29;20020;-66
2021/06/30 01:16:59;;;;;;;7.60;6.13;;;;;;;13.71;100.00;95527.31;1011188;29;20032;-67
2021/06/30 01:17:29;;;;;;;7.07;5.43;;;;;;;13.70;100.00;95519.72;1011926;29;20028;-66
2021/06/30 01:18:03;;;;;;;7.03;6.20;;;;;;;13.68;100.00;95517.34;1010991;29;20312;-67
2021/06/30 01:18:34;;;;;;;6.15;5.55;;;;;;;13.62;100.00;95518.53;1015008;29;20028;-66
2021/06/30 01:19:04;;;;;;;10.65;7.00;;;;;;;13.69;100.00;95529.47;1012019;29;20253;-67
2021/06/30 01:19:37;;;;;;;7.05;6.10;;;;;;;13.67;100.00;95532.38;1020493;29;20268;-66
2021/06/30 01:20:08;;;;;;;8.95;6.57;;;;;;;13.61;100.00;95515.06;1022715;29;20774;-66
2021/06/30 01:20:38;;;;;;;8.85;6.45;;;;;;;13.65;100.00;95534.56;1023064;28;20795;-66
2021/06/30 01:21:13;;;;;;;12.82;6.32;;;;;;;13.58;100.00;95517.50;1016933;29;20027;-66
2021/06/30 01:21:43;;;;;;;7.55;5.95;;;;;;;13.62;100.00;95526.44;1014914;29;20028;-66
2021/06/30 01:22:13;;;;;;;7.57;5.10;;;;;;;13.60;100.00;95534.63;1014936;29;20271;-66
2021/06/30 01:22:59;;;;;;;7.07;5.97;;;;;;;13.63;100.00;95526.13;1011898;29;20058;-66
2021/06/30 01:23:30;;;;;;;7.22;5.65;;;;;;;13.62;100.00;95534.34;1019747;29;20048;-67
2021/06/30 01:24:01;;;;;;;8.57;6.65;;;;;;;13.62;100.00;95534.34;1014749;29;20769;-67
2021/06/30 01:24:32;;;;;;;7.97;6.40;;;;;;;13.59;100.00;95534.91;1010855;29;20261;-66
2021/06/30 01:25:02;;;;;;;9.48;6.40;;;;;;;13.62;100.00;95534.34;1014932;29;20500;-67
2021/06/30 01:25:36;;;;;;;6.18;5.57;;;;;;;13.60;100.00;95525.94;1014988;29;20813;-67
2021/06/30 01:26:06;;;;;;;8.20;6.10;;;;;;;13.61;100.00;95538.81;1014744;29;20264;-66
2021/06/30 01:26:37;;;;;;;7.25;6.28;;;;;;;13.62;100.00;95540.41;1018977;29;20090;-66
2021/06/30 01:27:07;;;;;;;6.28;5.55;;;;;;;13.62;100.00;95542.25;1014632;29;20047;-66
2021/06/30 01:27:37;;;;;;;8.98;6.18;;;;;;;13.64;100.00;95532.97;1013016;29;20032;-67
2021/06/30 01:28:08;;;;;;;7.78;6.80;;;;;;;13.63;100.00;95525.34;1013728;29;20037;-66
2021/06/30 01:28:38;;;;;;;10.65;6.05;;;;;;;13.56;100.00;95531.00;1015103;29;20028;-67
2021/06/30 01:29:09;;;;;;;7.10;6.35;;;;;;;13.60;100.00;95545.16;1014696;29;20043;-66
2021/06/30 01:29:39;;;;;;;6.57;5.35;;;;;;;13.60;100.00;95547.00;1014577;29;20039;-67
2021/06/30 01:30:10;;;;;;;5.35;4.85;;;;;;;13.59;100.00;95545.47;1015120;29;20525;-66
2021/06/30 01:30:41;;;;;;;6.60;5.45;;;;;;;13.58;100.00;95536.78;1011163;29;20870;-67
2021/06/30 01:31:11;;;;;;;6.72;5.10;;;;;;;13.62;100.00;95545.66;1008048;29;20573;-67
2021/06/30 01:31:42;;;;;;;5.93;4.85;;;;;;;13.60;100.00;95545.16;1007552;29;20037;-67
2021/06/30 01:32:12;;;;;;;8.55;4.95;;;;;;;13.60;100.00;95542.53;1014927;29;20028;-67
2021/06/30 01:32:43;;;;;;;6.40;5.05;;;;;;;13.60;100.00;95544.38;1021056;29;20507;-67
2021/06/30 01:33:16;;;;;;;6.50;5.20;;;;;;;13.57;100.00;95531.75;1018513;29;20023;-66
2021/06/30 01:33:47;;;;;;;6.30;5.70;;;;;;;13.60;100.00;95542.53;1014941;29;20828;-66
2021/06/30 01:34:17;;;;;;;6.95;6.10;;;;;;;13.60;100.00;95539.09;1015136;29;20039;-65
2021/06/30 01:34:48;;;;;;;7.40;5.70;;;;;;;13.62;100.00;95539.63;1016723;29;20123;-66
2021/06/30 01:35:20;;;;;;;6.28;4.07;;;;;;;13.59;100.00;95543.59;1018997;29;20027;-66
2021/06/30 01:35:54;;;;;;;6.55;4.40;;;;;;;13.55;100.00;95536.56;1019168;29;20045;-67
2021/06/30 01:36:24;;;;;;;6.35;4.47;;;;;;;13.56;100.00;95538.91;1014363;29;20028;-66
2021/06/30 01:36:56;;;;;;;5.07;4.30;;;;;;;13.56;100.00;95544.16;1015020;29;20035;-67
2021/06/30 01:37:26;;;;;;;5.40;4.40;;;;;;;13.58;100.00;95543.88;1006591;29;20452;-67
2021/06/30 01:37:56;;;;;;;5.32;4.82;;;;;;;13.56;100.00;95543.38;1006942;29;20278;-64
2021/06/30 01:38:28;;;;;;;5.55;4.55;;;;;;;13.59;100.00;95546.22;1015244;29;20024;-67
2021/06/30 01:38:58;;;;;;;6.88;4.45;;;;;;;13.60;100.00;95547.78;1011069;29;20112;-67
2021/06/30 01:39:29;;;;;;;5.03;4.20;;;;;;;13.60;100.00;95547.78;1017530;29;20278;-66
2021/06/30 01:40:00;;;;;;;4.45;3.72;;;;;;;13.57;100.00;95548.34;1015075;29;20032;-67
2021/06/30 01:40:30;;;;;;;6.40;4.18;;;;;;;13.53;100.00;95543.97;1018794;29;20024;-66
2021/06/30 01:41:01;;;;;;;6.82;3.97;;;;;;;13.52;100.00;95543.19;1014961;29;20107;-66
2021/06/30 01:41:34;;;;;;;3.75;3.45;;;;;;;13.57;100.00;95544.94;1008643;29;20108;-66
2021/06/30 01:42:05;;;;;;;4.65;3.75;;;;;;;13.56;100.00;95559.22;1009524;29;20098;-66
2021/06/30 01:42:35;;;;;;;3.88;3.45;;;;;;;13.56;100.00;95554.72;1015207;29;20261;-66
2021/06/30 01:43:08;;;;;;;5.40;4.28;;;;;;;13.57;100.00;95545.72;1020994;28;20102;-66
2021/06/30 01:43:38;;;;;;;4.50;4.10;;;;;;;13.51;100.00;95543.44;1022573;28;20263;-67
2021/06/30 01:44:09;;;;;;;4.25;3.80;;;;;;;13.53;100.00;95546.59;1025343;28;20022;-66
2021/06/30 01:44:39;;;;;;;4.55;4.15;;;;;;;13.60;100.00;95549.66;1018673;29;20019;-66
2021/06/30 01:45:10;;;;;;;5.82;4.30;;;;;;;13.58;100.00;95555.22;1016528;29;20024;-66
2021/06/30 01:45:40;;;;;;;4.82;4.32;;;;;;;13.57;100.00;95563.41;1014583;29;20032;-67
2021/06/30 01:46:11;;;;;;;4.32;3.88;;;;;;;13.56;100.00;95554.72;1014551;29;20020;-66
2021/06/30 01:46:41;;;;;;;4.07;3.38;;;;;;;13.57;100.00;95551.00;1014572;29;20025;-66
2021/06/30 01:47:12;;;;;;;6.22;3.92;;;;;;;13.59;100.00;95554.16;1013045;29;20024;-65
2021/06/30 01:47:42;;;;;;;4.38;3.67;;;;;;;13.56;100.00;95557.34;1014096;29;20036;-66
2021/06/30 01:48:13;;;;;;;4.07;3.67;;;;;;;13.57;100.00;95558.13;1014491;29;20031;-64
2021/06/30 01:48:47;;;;;;;4.35;3.97;;;;;;;13.60;100.00;95568.09;1012743;29;20042;-65
2021/06/30 01:49:17;;;;;;;6.45;4.78;;;;;;;13.58;100.00;95564.97;1014107;29;20028;-64
2021/06/30 01:49:48;;;;;;;4.97;4.45;;;;;;;13.53;100.00;95551.88;1015101;29;20287;-66
2021/06/30 01:50:18;;;;;;;3.92;3.60;;;;;;;13.59;100.00;95572.59;1018804;29;20024;-67
2021/06/30 01:50:49;;;;;;;4.22;3.80;;;;;;;13.57;100.00;95566.81;1014781;29;20016;-67
2021/06/30 01:51:20;;;;;;;5.28;4.00;;;;;;;13.57;100.00;95566.81;1010527;29;20016;-66
2021/06/30 01:51:50;;;;;;;3.97;3.65;;;;;;;13.54;100.00;95559.47;1013933;29;20580;-66
2021/06/30 01:52:20;;;;;;;4.65;3.70;;;;;;;13.57;100.00;95573.94;1018639;29;20019;-66
2021/06/30 01:52:51;;;;;;;4.78;4.28;;;;;;;13.57;100.00;95576.59;1017857;29;20044;-66
2021/06/30 01:53:21;;;;;;;4.55;4.00;;;;;;;13.59;100.00;95571.81;1022441;29;20042;-66
2021/06/30 01:53:55;;;;;;;4.43;4.00;;;;;;;13.53;100.00;95572.94;1013429;29;20129;-66
2021/06/30 01:54:26;;;;;;;4.90;4.20;;;;;;;13.52;100.00;95568.75;1010808;29;20711;-66
2021/06/30 01:54:56;;;;;;;4.43;3.92;;;;;;;13.53;100.00;95562.41;1014721;29;20283;-67
2021/06/30 01:55:27;;;;;;;4.25;3.85;;;;;;;13.53;100.00;95562.41;1015683;29;20024;-67
2021/06/30 01:55:58;;;;;;;5.95;4.00;;;;;;;13.51;100.00;95565.31;1020939;29;20043;-67
2021/06/30 01:56:30;;;;;;;3.60;3.25;;;;;;;13.52;100.00;95564.25;1023247;29;20038;-67
2021/06/30 01:57:03;;;;;;;4.90;3.90;;;;;;;13.52;100.00;95558.22;1017028;29;20035;-65
2021/06/30 01:57:41;;;;;;;4.30;3.53;;;;;;;13.47;100.00;95563.53;1011524;29;20304;-67
2021/06/30 01:58:11;;;;;;;3.28;2.97;;;;;;;13.47;100.00;95561.69;1013781;29;20271;-67
2021/06/30 01:58:42;;;;;;;3.92;3.60;;;;;;;13.47;100.00;95558.28;1012305;29;20296;-65
2021/06/30 01:59:13;;;;;;;3.60;3.30;;;;;;;13.47;100.00;95560.91;1016393;29;20039;-66
2021/06/30 01:59:44;;;;;;;4.22;3.67;;;;;;;13.48;100.00;95560.63;1015139;29;20036;-69
2021/06/30 02:00:16;;;;;;;3.78;3.40;;;;;;;13.42;100.00;95561.78;1015368;29;20761;-66
2021/06/30 02:00:50;;;;;;;4.18;3.50;;;;;;;13.46;100.00;95564.63;1011455;29;20032;-66
2021/06/30 02:01:22;;;;;;;5.05;3.83;;;;;;;13.43;100.00;95560.69;1016048;29;20291;-67
2021/06/30 02:01:53;;;;;;;4.32;3.90;;;;;;;13.46;100.00;95569.91;1015156;29;20300;-66
2021/06/30 02:02:28;;;;;;;4.70;3.80;;;;;;;13.43;100.00;95564.09;1008879;29;20289;-67
2021/06/30 02:03:00;;;;;;;4.55;3.83;;;;;;;13.45;100.00;95571.75;1012435;29;20025;-67
2021/06/30 02:03:30;;;;;;;4.50;3.97;;;;;;;13.43;100.00;95569.38;1013135;29;20264;-66
2021/06/30 02:04:01;;;;;;;8.55;4.03;;;;;;;13.40;100.00;95558.63;1012663;29;20272;-67
2021/06/30 02:04:31;;;;;;;4.32;3.90;;;;;;;13.41;100.00;95566.25;1011217;29;20059;-64
2021/06/30 02:05:15;;;;;;;5.13;4.00;;;;;;;13.39;100.00;95565.75;1011398;29;20079;-66
2021/06/30 02:05:46;;;;;;;6.40;3.78;;;;;;;13.41;100.00;95584.72;1008563;29;20052;-66
2021/06/30 02:06:16;;;;;;;5.40;3.95;;;;;;;13.41;100.00;95581.28;1015615;29;20268;-66
2021/06/30 02:06:47;;;;;;;4.57;4.18;;;;;;;13.42;100.00;95585.50;1014907;29;20684;-67
2021/06/30 02:07:18;;;;;;;6.28;3.97;;;;;;;13.40;100.00;95579.72;1010245;29;20051;-64
2021/06/30 02:07:50;;;;;;;5.22;4.20;;;;;;;13.39;100.00;95576.28;1014672;29;20028;-66
2021/06/30 02:08:21;;;;;;;4.55;3.67;;;;;;;13.31;100.00;95576.94;1010537;29;20033;-67
2021/06/30 02:08:53;;;;;;;4.60;4.20;;;;;;;13.31;100.00;95569.03;1007764;29;20299;-67
2021/06/30 02:09:24;;;;;;;5.00;4.10;;;;;;;13.38;100.00;95592.38;1015236;29;20626;-66
2021/06/30 02:09:54;;;;;;;4.95;4.20;;;;;;;13.36;100.00;95582.13;1016337;29;20561;-66
2021/06/30 02:10:25;;;;;;;5.65;4.60;;;;;;;13.38;100.00;95584.47;1014921;29;20035;-66
2021/06/30 02:10:55;;;;;;;4.38;3.90;;;;;;;13.37;100.00;95586.31;1015111;29;20081;-67
2021/06/30 02:11:27;;;;;;;6.32;4.95;;;;;;;13.38;100.00;95587.91;1015355;29;20291;-67
2021/06/30 02:11:58;;;;;;;5.88;4.53;;;;;;;13.33;100.00;95585.34;1018562;29;20470;-67
2021/06/30 02:12:31;;;;;;;4.75;4.25;;;;;;;13.39;100.00;95594.75;1019137;29;20352;-67
2021/06/30 02:13:02;;;;;;;5.00;4.38;;;;;;;13.36;100.00;95587.41;1019066;28;20130;-65
2021/06/30 02:13:32;;;;;;;5.45;4.28;;;;;;;13.37;100.00;95602.13;1024667;28;20275;-67
2021/06/30 02:14:07;;;;;;;6.60;4.78;;;;;;;13.36;100.00;95595.31;1017177;29;20162;-66
2021/06/30 02:14:37;;;;;;;5.40;4.05;;;;;;;13.34;100.00;95591.38;1015189;29;20028;-66
2021/06/30 02:15:10;;;;;;;5.25;3.33;;;;;;;13.34;100.00;95592.16;1018197;29;20674;-65
2021/06/30 02:15:41;;;;;;;4.30;3.40;;;;;;;13.25;100.00;95591.25;1020081;28;20433;-66
2021/06/30 02:16:12;;;;;;;9.68;4.05;;;;;;;13.32;100.00;95596.94;1022721;29;20267;-67
2021/06/30 02:16:42;;;;;;;5.57;3.17;;;;;;;13.29;100.00;95589.59;1018535;29;20279;-66
2021/06/30 02:17:16;;;;;;;3.75;3.40;;;;;;;13.24;100.00;95581.75;1014772;29;20029;-67
2021/06/30 02:17:46;;;;;;;8.50;4.20;;;;;;;13.32;100.00;95596.94;1011221;29;20057;-67
2021/06/30 02:18:17;;;;;;;5.63;4.22;;;;;;;13.34;100.00;95589.53;1015480;29;20452;-66
2021/06/30 02:18:48;;;;;;;5.05;4.20;;;;;;;13.27;100.00;95585.69;1019085;29;20032;-67
2021/06/30 02:19:18;;;;;;;5.10;3.92;;;;;;;13.28;100.00;95592.50;1010324;29;20021;-66
2021/06/30 02:19:49;;;;;;;4.75;4.35;;;;;;;13.27;100.00;95597.00;1015060;29;20043;-64
2021/06/30 02:20:19;;;;;;;5.40;4.68;;;;;;;13.28;100.00;95601.22;1015007;29;20024;-67
2021/06/30 02:20:50;;;;;;;5.10;4.18;;;;;;;13.28;100.00;95595.13;1011535;29;20418;-67
2021/06/30 02:21:20;;;;;;;7.10;4.40;;;;;;;13.23;100.00;95590.69;1019138;29;20035;-66
2021/06/30 02:21:51;;;;;;;5.95;3.95;;;;;;;13.22;100.00;95599.69;1018987;29;20083;-66
2021/06/30 02:22:21;;;;;;;4.85;3.67;;;;;;;13.23;100.00;95603.88;1018984;29;20417;-66
2021/06/30 02:22:52;;;;;;;3.15;2.47;;;;;;;13.20;100.00;95586.00;1015587;29;20502;-65
2021/06/30 02:23:22;;;;;;;5.82;3.20;;;;;;;13.11;100.00;95585.03;1015545;29;20036;-66
2021/06/30 02:23:56;;;;;;;6.53;2.90;;;;;;;13.17;100.00;95586.56;1019290;29;20028;-65
2021/06/30 02:24:26;;;;;;;3.58;3.28;;;;;;;13.15;100.00;95584.22;1019651;29;20031;-66